sensor_id;sensor_type;location;lat;lon;timestamp;temperature;humidity
43414;DHT22;29013;49.676;8.606;2022-10-23T00:01:53;13.1;99.9
43414;DHT22;29013;49.676;8.606;2022-10-23T00:07:14;13.1;99.9
43414;DHT22;29013;49.676;8.606;2022-10-23T00:12:43;13.1;99.9
43414;DHT22;29013;49.676;8.606;2022-10-23T00:18:08;13.1;99.9
43414;DHT22;29013;49.676;8.606;2022-10-23T00:23:36;13.0;99.9
43414;DHT22;29013;49.676;8.606;2022-10-23T00:29:00;13.0;99.9
43414;DHT22;29013;49.676;8.606;2022-10-23T00:34:27;12.9;99.9
43414;DHT22;29013;49.676;8.606;2022-10-23T00:39:53;12.9;99.9
43414;DHT22;29013;49.676;8.606;2022-10-23T00:45:18;12.9;99.9
43414;DHT22;29013;49.676;8.606;2022-10-23T00:50:43;12.9;99.9
43414;DHT22;29013;49.676;8.606;2022-10-23T00:56:06;12.8;99.9
43414;DHT22;29013;49.676;8.606;2022-10-23T01:01:27;12.8;99.9
43414;DHT22;29013;49.676;8.606;2022-10-23T01:06:50;12.8;99.9
43414;DHT22;29013;49.676;8.606;2022-10-23T01:12:13;12.8;99.9
43414;DHT22;29013;49.676;8.606;2022-10-23T01:17:42;12.8;99.9
43414;DHT22;29013;49.676;8.606;2022-10-23T01:23:28;12.8;99.9
43414;DHT22;29013;49.676;8.606;2022-10-23T01:28:53;12.8;99.9
43414;DHT22;29013;49.676;8.606;2022-10-23T01:34:15;12.8;99.9
43414;DHT22;29013;49.676;8.606;2022-10-23T01:39:36;12.7;99.9
43414;DHT22;29013;49.676;8.606;2022-10-23T01:44:59;12.7;99.9
43414;DHT22;29013;49.676;8.606;2022-10-23T01:50:24;12.6;99.9
43414;DHT22;29013;49.676;8.606;2022-10-23T01:55:48;12.6;99.9
43414;DHT22;29013;49.676;8.606;2022-10-23T02:01:12;12.5;99.9
43414;DHT22;29013;49.676;8.606;2022-10-23T02:06:39;12.4;99.9
43414;DHT22;29013;49.676;8.606;2022-10-23T02:12:05;12.4;99.9
43414;DHT22;29013;49.676;8.606;2022-10-23T02:17:32;12.4;99.9
43414;DHT22;29013;49.676;8.606;2022-10-23T02:22:57;12.4;99.9
43414;DHT22;29013;49.676;8.606;2022-10-23T02:28:19;12.4;99.9
43414;DHT22;29013;49.676;8.606;2022-10-23T02:33:45;12.2;99.9
43414;DHT22;29013;49.676;8.606;2022-10-23T02:39:12;12.3;99.9
43414;DHT22;29013;49.676;8.606;2022-10-23T02:44:41;12.3;99.9
43414;DHT22;29013;49.676;8.606;2022-10-23T02:50:08;12.2;99.9
43414;DHT22;29013;49.676;8.606;2022-10-23T02:55:37;12.2;99.9
43414;DHT22;29013;49.676;8.606;2022-10-23T03:00:58;12.2;99.9
43414;DHT22;29013;49.676;8.606;2022-10-23T03:06:25;12.1;99.9
43414;DHT22;29013;49.676;8.606;2022-10-23T03:11:47;12.0;99.9
43414;DHT22;29013;49.676;8.606;2022-10-23T03:17:13;11.8;99.9
43414;DHT22;29013;49.676;8.606;2022-10-23T03:22:34;11.8;99.9
43414;DHT22;29013;49.676;8.606;2022-10-23T03:27:58;11.8;99.9
43414;DHT22;29013;49.676;8.606;2022-10-23T03:33:23;11.8;99.9
43414;DHT22;29013;49.676;8.606;2022-10-23T03:38:49;11.8;99.9
43414;DHT22;29013;49.676;8.606;2022-10-23T03:44:17;11.8;99.9
43414;DHT22;29013;49.676;8.606;2022-10-23T03:49:44;11.8;99.9
43414;DHT22;29013;49.676;8.606;2022-10-23T03:55:10;11.8;99.9
43414;DHT22;29013;49.676;8.606;2022-10-23T04:00:37;11.8;99.9
43414;DHT22;29013;49.676;8.606;2022-10-23T04:06:01;11.7;99.9
43414;DHT22;29013;49.676;8.606;2022-10-23T04:11:28;11.6;99.9
43414;DHT22;29013;49.676;8.606;2022-10-23T04:16:54;11.7;99.9
43414;DHT22;29013;49.676;8.606;2022-10-23T04:22:19;11.7;99.9
43414;DHT22;29013;49.676;8.606;2022-10-23T04:27:45;11.6;99.9
43414;DHT22;29013;49.676;8.606;2022-10-23T04:33:09;11.6;99.9
43414;DHT22;29013;49.676;8.606;2022-10-23T04:38:33;11.5;99.9
43414;DHT22;29013;49.676;8.606;2022-10-23T04:43:55;11.6;99.9
43414;DHT22;29013;49.676;8.606;2022-10-23T04:49:20;11.6;99.9
43414;DHT22;29013;49.676;8.606;2022-10-23T04:54:45;11.6;99.9
43414;DHT22;29013;49.676;8.606;2022-10-23T05:00:12;11.5;99.9
43414;DHT22;29013;49.676;8.606;2022-10-23T05:05:32;11.5;99.9
43414;DHT22;29013;49.676;8.606;2022-10-23T05:10:55;11.5;99.9
43414;DHT22;29013;49.676;8.606;2022-10-23T05:16:23;11.4;99.9
43414;DHT22;29013;49.676;8.606;2022-10-23T05:21:46;11.3;99.9
43414;DHT22;29013;49.676;8.606;2022-10-23T05:27:12;11.4;99.9
43414;DHT22;29013;49.676;8.606;2022-10-23T05:32:38;11.4;99.9
43414;DHT22;29013;49.676;8.606;2022-10-23T05:38:04;11.4;99.9
43414;DHT22;29013;49.676;8.606;2022-10-23T05:43:32;11.4;99.9
43414;DHT22;29013;49.676;8.606;2022-10-23T05:48:59;11.4;99.9
43414;DHT22;29013;49.676;8.606;2022-10-23T05:54:26;11.2;99.9
43414;DHT22;29013;49.676;8.606;2022-10-23T05:59:47;11.2;99.9
43414;DHT22;29013;49.676;8.606;2022-10-23T06:05:12;11.3;99.9
43414;DHT22;29013;49.676;8.606;2022-10-23T06:10:34;11.2;99.9
43414;DHT22;29013;49.676;8.606;2022-10-23T06:16:08;11.3;99.9
43414;DHT22;29013;49.676;8.606;2022-10-23T06:21:36;11.3;99.9
43414;DHT22;29013;49.676;8.606;2022-10-23T06:27:01;11.1;99.9
43414;DHT22;29013;49.676;8.606;2022-10-23T06:32:32;11.0;99.9
43414;DHT22;29013;49.676;8.606;2022-10-23T06:37:55;11.0;99.9
43414;DHT22;29013;49.676;8.606;2022-10-23T06:43:19;11.1;99.9
43414;DHT22;29013;49.676;8.606;2022-10-23T06:48:46;11.2;99.9
43414;DHT22;29013;49.676;8.606;2022-10-23T06:54:13;11.2;99.9
43414;DHT22;29013;49.676;8.606;2022-10-23T06:59:39;11.3;99.9
43414;DHT22;29013;49.676;8.606;2022-10-23T07:04:59;11.4;99.9
43414;DHT22;29013;49.676;8.606;2022-10-23T07:10:21;11.5;99.9
43414;DHT22;29013;49.676;8.606;2022-10-23T07:15:43;11.5;99.9
43414;DHT22;29013;49.676;8.606;2022-10-23T07:21:04;11.4;99.9
43414;DHT22;29013;49.676;8.606;2022-10-23T07:26:26;11.5;99.9
43414;DHT22;29013;49.676;8.606;2022-10-23T07:31:53;11.5;99.9
43414;DHT22;29013;49.676;8.606;2022-10-23T07:37:20;11.6;99.9
43414;DHT22;29013;49.676;8.606;2022-10-23T07:42:44;11.9;99.9
43414;DHT22;29013;49.676;8.606;2022-10-23T07:48:11;12.0;99.9
43414;DHT22;29013;49.676;8.606;2022-10-23T07:53:36;12.1;99.9
43414;DHT22;29013;49.676;8.606;2022-10-23T07:58:56;12.3;99.9
43414;DHT22;29013;49.676;8.606;2022-10-23T08:04:20;12.5;99.9
43414;DHT22;29013;49.676;8.606;2022-10-23T08:09:46;12.6;99.9
43414;DHT22;29013;49.676;8.606;2022-10-23T08:15:12;12.9;99.9
43414;DHT22;29013;49.676;8.606;2022-10-23T08:20:43;13.1;99.9
43414;DHT22;29013;49.676;8.606;2022-10-23T08:26:05;13.1;99.9
43414;DHT22;29013;49.676;8.606;2022-10-23T08:31:28;13.3;99.9
43414;DHT22;29013;49.676;8.606;2022-10-23T08:36:54;13.6;99.9
43414;DHT22;29013;49.676;8.606;2022-10-23T08:42:22;13.9;99.9
43414;DHT22;29013;49.676;8.606;2022-10-23T08:47:47;14.2;99.9
43414;DHT22;29013;49.676;8.606;2022-10-23T08:53:17;14.4;99.9
43414;DHT22;29013;49.676;8.606;2022-10-23T08:58:43;14.6;99.9
43414;DHT22;29013;49.676;8.606;2022-10-23T09:04:07;14.9;99.9
43414;DHT22;29013;49.676;8.606;2022-10-23T09:10:00;15.1;99.9
43414;DHT22;29013;49.676;8.606;2022-10-23T09:15:26;15.3;99.9
43414;DHT22;29013;49.676;8.606;2022-10-23T09:20:49;15.4;99.9
43414;DHT22;29013;49.676;8.606;2022-10-23T09:26:16;15.4;99.9
43414;DHT22;29013;49.676;8.606;2022-10-23T09:31:51;15.8;99.9
43414;DHT22;29013;49.676;8.606;2022-10-23T09:37:24;16.0;99.9
43414;DHT22;29013;49.676;8.606;2022-10-23T09:42:59;16.1;99.9
43414;DHT22;29013;49.676;8.606;2022-10-23T09:48:21;16.3;99.9
43414;DHT22;29013;49.676;8.606;2022-10-23T09:53:51;16.2;99.9
43414;DHT22;29013;49.676;8.606;2022-10-23T09:59:20;16.3;99.9
43414;DHT22;29013;49.676;8.606;2022-10-23T10:04:40;16.4;99.9
43414;DHT22;29013;49.676;8.606;2022-10-23T10:10:13;16.2;99.9
43414;DHT22;29013;49.676;8.606;2022-10-23T10:15:36;16.0;99.9
43414;DHT22;29013;49.676;8.606;2022-10-23T10:21:07;16.0;99.9
43414;DHT22;29013;49.676;8.606;2022-10-23T10:26:33;16.1;99.9
43414;DHT22;29013;49.676;8.606;2022-10-23T10:31:58;16.3;99.9
43414;DHT22;29013;49.676;8.606;2022-10-23T10:37:28;16.4;99.9
43414;DHT22;29013;49.676;8.606;2022-10-23T10:42:59;16.4;99.9
43414;DHT22;29013;49.676;8.606;2022-10-23T10:48:30;16.5;99.9
43414;DHT22;29013;49.676;8.606;2022-10-23T10:54:09;16.5;99.9
43414;DHT22;29013;49.676;8.606;2022-10-23T11:00:29;16.5;99.9
43414;DHT22;29013;49.676;8.606;2022-10-23T11:05:54;17.0;99.9
43414;DHT22;29013;49.676;8.606;2022-10-23T11:11:19;17.0;99.9
43414;DHT22;29013;49.676;8.606;2022-10-23T11:16:46;17.2;99.9
43414;DHT22;29013;49.676;8.606;2022-10-23T11:22:15;17.4;99.9
43414;DHT22;29013;49.676;8.606;2022-10-23T11:27:55;17.7;99.9
43414;DHT22;29013;49.676;8.606;2022-10-23T11:39:25;18.1;99.9
43414;DHT22;29013;49.676;8.606;2022-10-23T11:44:49;17.9;99.9
43414;DHT22;29013;49.676;8.606;2022-10-23T11:50:24;18.1;99.9
43414;DHT22;29013;49.676;8.606;2022-10-23T11:55:38;18.3;99.9
43414;DHT22;29013;49.676;8.606;2022-10-23T12:01:05;18.5;99.9
43414;DHT22;29013;49.676;8.606;2022-10-23T12:06:30;18.7;99.9
43414;DHT22;29013;49.676;8.606;2022-10-23T12:12:25;19.1;99.9
43414;DHT22;29013;49.676;8.606;2022-10-23T12:17:41;19.8;99.9
43414;DHT22;29013;49.676;8.606;2022-10-23T12:23:33;20.2;99.9
43414;DHT22;29013;49.676;8.606;2022-10-23T12:28:56;20.7;99.9
43414;DHT22;29013;49.676;8.606;2022-10-23T12:34:33;21.2;99.9
43414;DHT22;29013;49.676;8.606;2022-10-23T12:39:55;21.1;99.9
43414;DHT22;29013;49.676;8.606;2022-10-23T12:45:19;21.0;99.9
43414;DHT22;29013;49.676;8.606;2022-10-23T12:50:46;21.1;99.9
43414;DHT22;29013;49.676;8.606;2022-10-23T12:56:11;21.0;99.9
43414;DHT22;29013;49.676;8.606;2022-10-23T13:01:33;20.9;99.9
43414;DHT22;29013;49.676;8.606;2022-10-23T13:07:01;21.0;99.9
43414;DHT22;29013;49.676;8.606;2022-10-23T13:12:30;21.0;99.9
43414;DHT22;29013;49.676;8.606;2022-10-23T13:18:04;21.0;99.9
43414;DHT22;29013;49.676;8.606;2022-10-23T13:23:28;21.0;99.9
43414;DHT22;29013;49.676;8.606;2022-10-23T13:28:54;20.8;99.9
43414;DHT22;29013;49.676;8.606;2022-10-23T13:34:29;20.8;99.9
43414;DHT22;29013;49.676;8.606;2022-10-23T13:39:59;20.8;99.9
43414;DHT22;29013;49.676;8.606;2022-10-23T13:45:22;20.9;99.9
43414;DHT22;29013;49.676;8.606;2022-10-23T13:50:43;20.9;99.9
43414;DHT22;29013;49.676;8.606;2022-10-23T13:56:05;20.8;99.9
43414;DHT22;29013;49.676;8.606;2022-10-23T14:01:33;20.8;99.9
43414;DHT22;29013;49.676;8.606;2022-10-23T14:06:56;20.8;99.9
43414;DHT22;29013;49.676;8.606;2022-10-23T14:12:24;20.7;99.9
43414;DHT22;29013;49.676;8.606;2022-10-23T14:17:46;20.6;99.9
43414;DHT22;29013;49.676;8.606;2022-10-23T14:23:12;20.6;99.9
43414;DHT22;29013;49.676;8.606;2022-10-23T14:28:38;20.5;99.9
43414;DHT22;29013;49.676;8.606;2022-10-23T14:34:04;20.5;99.9
43414;DHT22;29013;49.676;8.606;2022-10-23T14:39:27;20.4;99.9
43414;DHT22;29013;49.676;8.606;2022-10-23T14:44:53;20.3;99.9
43414;DHT22;29013;49.676;8.606;2022-10-23T14:50:20;20.2;99.9
43414;DHT22;29013;49.676;8.606;2022-10-23T14:55:44;20.1;99.9
43414;DHT22;29013;49.676;8.606;2022-10-23T15:01:10;19.9;99.9
43414;DHT22;29013;49.676;8.606;2022-10-23T15:06:39;19.7;99.9
43414;DHT22;29013;49.676;8.606;2022-10-23T15:12:08;19.7;99.9
43414;DHT22;29013;49.676;8.606;2022-10-23T15:17:33;19.8;99.9
43414;DHT22;29013;49.676;8.606;2022-10-23T15:23:00;19.7;99.9
43414;DHT22;29013;49.676;8.606;2022-10-23T15:28:25;19.6;99.9
43414;DHT22;29013;49.676;8.606;2022-10-23T15:33:50;19.6;99.9
43414;DHT22;29013;49.676;8.606;2022-10-23T15:39:13;19.4;99.9
43414;DHT22;29013;49.676;8.606;2022-10-23T15:44:35;19.4;99.9
43414;DHT22;29013;49.676;8.606;2022-10-23T15:50:00;19.4;99.9
43414;DHT22;29013;49.676;8.606;2022-10-23T15:55:28;19.3;99.9
43414;DHT22;29013;49.676;8.606;2022-10-23T16:00:54;19.2;99.9
43414;DHT22;29013;49.676;8.606;2022-10-23T16:06:19;19.1;99.9
43414;DHT22;29013;49.676;8.606;2022-10-23T16:11:47;18.9;99.9
43414;DHT22;29013;49.676;8.606;2022-10-23T16:17:10;18.8;99.9
43414;DHT22;29013;49.676;8.606;2022-10-23T16:22:34;18.7;99.9
43414;DHT22;29013;49.676;8.606;2022-10-23T16:28:02;18.6;99.9
43414;DHT22;29013;49.676;8.606;2022-10-23T16:33:23;18.5;99.9
43414;DHT22;29013;49.676;8.606;2022-10-23T16:38:51;18.4;99.9
43414;DHT22;29013;49.676;8.606;2022-10-23T16:44:19;18.3;99.9
43414;DHT22;29013;49.676;8.606;2022-10-23T16:49:44;18.3;99.9
43414;DHT22;29013;49.676;8.606;2022-10-23T16:55:10;18.3;99.9
43414;DHT22;29013;49.676;8.606;2022-10-23T17:00:36;18.3;99.9
43414;DHT22;29013;49.676;8.606;2022-10-23T17:06:04;18.3;99.9
43414;DHT22;29013;49.676;8.606;2022-10-23T17:11:25;18.3;99.9
43414;DHT22;29013;49.676;8.606;2022-10-23T17:16:51;18.2;99.9
43414;DHT22;29013;49.676;8.606;2022-10-23T17:22:17;18.3;99.9
43414;DHT22;29013;49.676;8.606;2022-10-23T17:27:45;18.3;99.9
43414;DHT22;29013;49.676;8.606;2022-10-23T17:33:10;18.3;99.9
43414;DHT22;29013;49.676;8.606;2022-10-23T17:38:39;18.4;99.9
43414;DHT22;29013;49.676;8.606;2022-10-23T17:44:01;18.3;99.9
43414;DHT22;29013;49.676;8.606;2022-10-23T17:49:27;18.2;99.9
43414;DHT22;29013;49.676;8.606;2022-10-23T17:54:54;18.2;99.9
43414;DHT22;29013;49.676;8.606;2022-10-23T18:00:17;18.0;99.9
43414;DHT22;29013;49.676;8.606;2022-10-23T18:05:43;18.0;99.9
43414;DHT22;29013;49.676;8.606;2022-10-23T18:11:09;18.0;99.9
43414;DHT22;29013;49.676;8.606;2022-10-23T18:16:33;17.9;99.9
43414;DHT22;29013;49.676;8.606;2022-10-23T18:21:58;17.9;99.9
43414;DHT22;29013;49.676;8.606;2022-10-23T18:27:24;17.9;99.9
43414;DHT22;29013;49.676;8.606;2022-10-23T18:32:51;17.8;99.9
43414;DHT22;29013;49.676;8.606;2022-10-23T18:38:13;17.8;99.9
43414;DHT22;29013;49.676;8.606;2022-10-23T18:43:35;17.8;99.9
43414;DHT22;29013;49.676;8.606;2022-10-23T18:48:56;17.8;99.9
43414;DHT22;29013;49.676;8.606;2022-10-23T18:54:20;17.8;99.9
43414;DHT22;29013;49.676;8.606;2022-10-23T18:59:45;17.8;99.9
43414;DHT22;29013;49.676;8.606;2022-10-23T19:05:12;17.7;99.9
43414;DHT22;29013;49.676;8.606;2022-10-23T19:10:34;17.7;99.9
43414;DHT22;29013;49.676;8.606;2022-10-23T19:15:57;17.7;99.9
43414;DHT22;29013;49.676;8.606;2022-10-23T19:21:23;17.7;99.9
43414;DHT22;29013;49.676;8.606;2022-10-23T19:26:45;17.6;99.9
43414;DHT22;29013;49.676;8.606;2022-10-23T19:32:09;17.6;99.9
43414;DHT22;29013;49.676;8.606;2022-10-23T19:37:31;17.6;99.9
43414;DHT22;29013;49.676;8.606;2022-10-23T19:42:59;17.6;99.9
43414;DHT22;29013;49.676;8.606;2022-10-23T19:48:26;17.6;99.9
43414;DHT22;29013;49.676;8.606;2022-10-23T19:53:54;17.6;99.9
43414;DHT22;29013;49.676;8.606;2022-10-23T19:59:17;17.7;99.9
43414;DHT22;29013;49.676;8.606;2022-10-23T20:04:47;17.7;99.9
43414;DHT22;29013;49.676;8.606;2022-10-23T20:10:12;17.7;99.9
43414;DHT22;29013;49.676;8.606;2022-10-23T20:15:39;17.7;99.9
43414;DHT22;29013;49.676;8.606;2022-10-23T20:21:07;17.7;99.9
43414;DHT22;29013;49.676;8.606;2022-10-23T20:26:33;17.8;99.9
43414;DHT22;29013;49.676;8.606;2022-10-23T20:31:54;17.7;99.9
43414;DHT22;29013;49.676;8.606;2022-10-23T20:37:21;17.7;99.9
43414;DHT22;29013;49.676;8.606;2022-10-23T20:42:49;17.7;99.9
43414;DHT22;29013;49.676;8.606;2022-10-23T20:48:14;17.7;99.9
43414;DHT22;29013;49.676;8.606;2022-10-23T20:53:41;17.6;99.9
43414;DHT22;29013;49.676;8.606;2022-10-23T20:59:09;17.6;99.9
43414;DHT22;29013;49.676;8.606;2022-10-23T21:04:33;17.7;99.9
43414;DHT22;29013;49.676;8.606;2022-10-23T21:09:58;17.6;99.9
43414;DHT22;29013;49.676;8.606;2022-10-23T21:15:26;17.6;99.9
43414;DHT22;29013;49.676;8.606;2022-10-23T21:20:51;17.6;99.9
43414;DHT22;29013;49.676;8.606;2022-10-23T21:26:17;17.6;99.9
43414;DHT22;29013;49.676;8.606;2022-10-23T21:31:43;17.7;99.9
43414;DHT22;29013;49.676;8.606;2022-10-23T21:37:10;17.7;99.9
43414;DHT22;29013;49.676;8.606;2022-10-23T21:42:36;17.7;99.9
43414;DHT22;29013;49.676;8.606;2022-10-23T21:48:05;17.7;99.9
43414;DHT22;29013;49.676;8.606;2022-10-23T21:53:33;17.7;99.9
43414;DHT22;29013;49.676;8.606;2022-10-23T21:59:00;17.7;99.9
43414;DHT22;29013;49.676;8.606;2022-10-23T22:04:26;17.7;99.9
43414;DHT22;29013;49.676;8.606;2022-10-23T22:09:54;17.7;99.9
43414;DHT22;29013;49.676;8.606;2022-10-23T22:15:22;17.7;99.9
43414;DHT22;29013;49.676;8.606;2022-10-23T22:20:47;17.7;99.9
43414;DHT22;29013;49.676;8.606;2022-10-23T22:26:16;17.7;99.9
43414;DHT22;29013;49.676;8.606;2022-10-23T22:31:41;17.7;99.9
43414;DHT22;29013;49.676;8.606;2022-10-23T22:37:09;17.7;99.9
43414;DHT22;29013;49.676;8.606;2022-10-23T22:42:36;17.8;99.9
43414;DHT22;29013;49.676;8.606;2022-10-23T22:48:05;17.8;99.9
43414;DHT22;29013;49.676;8.606;2022-10-23T22:53:33;17.8;99.9
43414;DHT22;29013;49.676;8.606;2022-10-23T22:58:58;17.8;99.9
43414;DHT22;29013;49.676;8.606;2022-10-23T23:04:22;17.7;99.9
43414;DHT22;29013;49.676;8.606;2022-10-23T23:09:49;17.7;99.9
43414;DHT22;29013;49.676;8.606;2022-10-23T23:15:14;17.8;99.9
43414;DHT22;29013;49.676;8.606;2022-10-23T23:20:41;17.8;99.9
43414;DHT22;29013;49.676;8.606;2022-10-23T23:26:05;17.9;99.9
43414;DHT22;29013;49.676;8.606;2022-10-23T23:31:32;17.9;99.9
43414;DHT22;29013;49.676;8.606;2022-10-23T23:36:59;18.0;99.9
43414;DHT22;29013;49.676;8.606;2022-10-23T23:42:27;18.0;99.9
43414;DHT22;29013;49.676;8.606;2022-10-23T23:47:52;18.0;99.9
43414;DHT22;29013;49.676;8.606;2022-10-23T23:53:17;18.0;99.9
43414;DHT22;29013;49.676;8.606;2022-10-23T23:58:44;18.0;99.9
